Time;durP1;ratioP1;P1;durP2;ratioP2;P2;SDS_P1;SDS_P2;PMS_P1;PMS_P2;Temp;Humidity;BMP_temperature;BMP_pressure;BME280_temperature;BME280_humidity;BME280_pressure;Samples;Min_cycle;Max_cycle;Signal;HPM_P1;HPM_P2
2021/01/08 00:02:18;;;;;;;;;;;;;;;14.87;56.80;100684.25;4868196;29;1365;-68
2021/01/08 00:04:46;;;;;;;;;;;;;;;14.83;57.11;100680.94;4850093;29;1253;-67
2021/01/08 00:07:12;;;;;;;;;;;;;;;14.85;56.67;100679.09;4872849;29;1371;-67
2021/01/08 00:09:39;;;;;;;;;;;;;;;14.84;56.75;100680.00;4865708;29;1214;-65
2021/01/08 00:12:06;;;;;;;;;;;;;;;14.83;56.84;100680.09;4867240;29;1297;-67
2021/01/08 00:14:32;;;;;;;;;;;;;;;14.81;56.84;100676.66;4867555;29;1911;-68
2021/01/08 00:16:59;;;;;;;;;;;;;;;14.80;56.88;100677.59;4866085;29;1286;-69
2021/01/08 00:19:25;;;;;;;;;;;;;;;14.78;57.13;100678.50;4867869;29;1700;-67
2021/01/08 00:21:52;;;;;;;;;;;;;;;14.78;56.96;100675.88;4867844;29;1309;-67
2021/01/08 00:24:18;;;;;;;;;;;;;;;14.76;56.95;100672.47;4865363;29;1313;-67
2021/01/08 00:26:44;;;;;;;;;;;;;;;14.76;56.71;100672.47;4869596;29;1288;-67
2021/01/08 00:29:11;;;;;;;;;;;;;;;14.77;56.98;100679.41;4866618;29;1289;-67
2021/01/08 00:31:38;;;;;;;;;;;;;;;14.73;57.12;100667.34;4867835;29;1246;-67
2021/01/08 00:34:08;;;;;;;;;;;;;;;14.74;57.03;100670.84;4866037;29;1293;-67
2021/01/08 00:36:35;;;;;;;;;;;;;;;14.72;57.00;100673.50;4865505;29;1922;-67
2021/01/08 00:39:03;;;;;;;;;;;;;;;14.70;56.69;100680.59;4865186;29;1313;-67
2021/01/08 00:41:33;;;;;;;;;;;;;;;14.71;57.04;100674.41;4866025;29;1277;-67
2021/01/08 00:44:03;;;;;;;;;;;;;;;14.70;57.02;100671.88;4867021;29;1258;-67
2021/01/08 00:46:31;;;;;;;;;;;;;;;14.67;56.80;100672.84;4867271;29;1281;-68
2021/01/08 00:48:57;;;;;;;;;;;;;;;14.68;57.15;100664.06;4866771;29;1289;-68
2021/01/08 00:51:24;;;;;;;;;;;;;;;14.67;56.91;100666.75;4865444;29;1132;-68
2021/01/08 00:53:51;;;;;;;;;;;;;;;14.64;57.29;100662.50;4865864;29;1329;-68
2021/01/08 00:56:20;;;;;;;;;;;;;;;14.66;57.02;100659.78;4866757;29;1927;-68
2021/01/08 00:58:47;;;;;;;;;;;;;;;14.64;56.95;100659.88;4865247;29;1360;-68
2021/01/08 01:01:13;;;;;;;;;;;;;;;14.65;56.89;100652.88;4865329;29;1237;-68
2021/01/08 01:03:40;;;;;;;;;;;;;;;14.65;56.78;100655.47;4866802;29;1262;-68
2021/01/08 01:06:06;;;;;;;;;;;;;;;14.61;56.93;100648.66;4869720;29;1280;-67
2021/01/08 01:08:32;;;;;;;;;;;;;;;14.62;56.98;100659.06;4864165;29;1265;-67
2021/01/08 01:10:59;;;;;;;;;;;;;;;14.62;56.93;100653.81;4867282;29;1270;-67
2021/01/08 01:13:26;;;;;;;;;;;;;;;14.63;57.09;100652.91;4865250;29;1326;-66
2021/01/08 01:15:52;;;;;;;;;;;;;;;14.61;57.16;100657.38;4865867;29;1919;-66
2021/01/08 01:18:19;;;;;;;;;;;;;;;14.60;56.70;100655.66;4866595;29;1569;-67
2021/01/08 01:20:46;;;;;;;;;;;;;;;14.60;57.06;100666.16;4865761;29;1222;-67
2021/01/08 01:23:12;;;;;;;;;;;;;;;14.60;57.19;100668.75;4865729;29;1372;-67
2021/01/08 01:25:38;;;;;;;;;;;;;;;14.61;56.84;100665.25;4867307;29;1261;-67
2021/01/08 01:28:04;;;;;;;;;;;;;;;14.57;57.17;100670.66;4864889;29;1354;-67
2021/01/08 01:30:31;;;;;;;;;;;;;;;14.58;56.82;100678.47;4865806;29;1226;-67
2021/01/08 01:33:02;;;;;;;;;;;;;;;14.57;57.13;100683.75;4866432;29;1281;-67
2021/01/08 01:35:29;;;;;;;;;;;;;;;14.56;56.78;100682.91;4864977;29;1919;-67
2021/01/08 01:37:55;;;;;;;;;;;;;;;14.55;56.96;100678.59;4864645;29;1261;-67
2021/01/08 01:40:21;;;;;;;;;;;;;;;14.53;57.04;100677.78;4866526;29;1218;-67
2021/01/08 01:42:48;;;;;;;;;;;;;;;14.53;56.94;100676.97;4864961;29;1267;-67
2021/01/08 01:45:14;;;;;;;;;;;;;;;14.53;57.01;100680.41;4865135;29;1285;-67
2021/01/08 01:47:41;;;;;;;;;;;;;;;14.53;57.15;100669.09;4866211;29;1297;-67
2021/01/08 01:50:08;;;;;;;;;;;;;;;14.53;57.12;100672.53;4864693;29;1238;-66
2021/01/08 01:52:35;;;;;;;;;;;;;;;14.50;57.09;100672.66;4850337;29;1470;-67
2021/01/08 01:55:03;;;;;;;;;;;;;;;14.52;57.14;100677.88;4847695;29;1982;-67
2021/01/08 01:57:29;;;;;;;;;;;;;;;14.51;57.15;100681.38;4865631;29;1268;-67
2021/01/08 01:59:56;;;;;;;;;;;;;;;14.49;57.26;100667.50;4865867;29;1238;-67
2021/01/08 02:02:25;;;;;;;;;;;;;;;14.48;57.16;100668.41;4864017;29;1475;-67
2021/01/08 02:04:53;;;;;;;;;;;;;;;14.48;57.23;100666.66;4865222;29;1320;-67
2021/01/08 02:07:20;;;;;;;;;;;;;;;14.45;57.17;100664.16;4866126;29;1286;-67
2021/01/08 02:09:47;;;;;;;;;;;;;;;14.45;56.82;100672.00;4864822;29;1245;-67
2021/01/08 02:12:14;;;;;;;;;;;;;;;14.45;57.01;100672.00;4864797;29;1304;-68
2021/01/08 02:14:42;;;;;;;;;;;;;;;14.46;56.86;100668.47;4866420;29;1189;-68
2021/01/08 02:17:11;;;;;;;;;;;;;;;14.41;57.21;100665.16;4865002;29;1305;-66
2021/01/08 02:19:50;;;;;;;;;;;;;;;14.42;57.01;100666.88;4864762;29;1502;-68
2021/01/08 02:22:31;;;;;;;;;;;;;;;14.42;56.90;100666.88;4864562;29;1314;-68
2021/01/08 02:24:57;;;;;;;;;;;;;;;14.41;57.04;100659.09;4866182;29;1278;-68
2021/01/08 02:27:24;;;;;;;;;;;;;;;14.40;57.04;100649.53;4864343;29;1291;-69
2021/01/08 02:29:50;;;;;;;;;;;;;;;14.39;56.99;100658.28;4865173;29;1285;-68
2021/01/08 02:32:17;;;;;;;;;;;;;;;14.39;56.93;100656.53;4865274;29;1278;-68
2021/01/08 02:34:43;;;;;;;;;;;;;;;14.36;57.25;100653.19;4863881;29;1285;-68
2021/01/08 02:37:09;;;;;;;;;;;;;;;14.36;57.05;100651.41;4865240;29;1375;-68
2021/01/08 02:39:36;;;;;;;;;;;;;;;14.34;56.85;100648.00;4865976;29;1266;-68
2021/01/08 02:42:04;;;;;;;;;;;;;;;14.34;57.06;100649.78;4863877;29;1227;-68
2021/01/08 02:44:31;;;;;;;;;;;;;;;14.33;56.80;100646.28;4865262;29;1103;-68
2021/01/08 02:46:58;;;;;;;;;;;;;;;14.33;56.79;100651.53;4866025;29;1250;-68
2021/01/08 02:49:24;;;;;;;;;;;;;;;14.33;56.93;100646.28;4867292;29;1435;-67
2021/01/08 02:51:50;;;;;;;;;;;;;;;14.34;56.90;100644.53;4868383;29;1282;-67
2021/01/08 02:54:16;;;;;;;;;;;;;;;14.32;57.24;100638.47;4868736;29;1242;-67
2021/01/08 02:56:44;;;;;;;;;;;;;;;14.31;57.08;100642.00;4866958;29;1978;-68
2021/01/08 02:59:11;;;;;;;;;;;;;;;14.30;57.17;100638.53;4868150;29;1277;-67
2021/01/08 03:01:38;;;;;;;;;;;;;;;14.31;57.02;100637.63;4868526;29;1281;-67
2021/01/08 03:04:05;;;;;;;;;;;;;;;14.32;57.05;100638.47;4867052;29;1424;-67
2021/01/08 03:06:32;;;;;;;;;;;;;;;14.29;57.06;100631.56;4868374;29;1332;-68
2021/01/08 03:09:02;;;;;;;;;;;;;;;14.29;57.06;100626.31;4868546;29;1490;-67
2021/01/08 03:11:29;;;;;;;;;;;;;;;14.27;57.15;100625.53;4867410;29;1257;-67
2021/01/08 03:13:56;;;;;;;;;;;;;;;14.29;57.20;100626.31;4866053;29;1297;-67
2021/01/08 03:16:23;;;;;;;;;;;;;;;14.27;56.99;100624.69;4851997;29;1911;-68
2021/01/08 03:18:50;;;;;;;;;;;;;;;14.28;57.45;100626.41;4850639;29;1572;-67
2021/01/08 03:21:16;;;;;;;;;;;;;;;14.27;57.05;100627.31;4867814;29;1301;-67
2021/01/08 03:23:42;;;;;;;;;;;;;;;14.25;57.07;100627.38;4868663;29;1339;-67
2021/01/08 03:26:08;;;;;;;;;;;;;;;14.24;57.42;100617.81;4867592;29;1333;-68
2021/01/08 03:28:35;;;;;;;;;;;;;;;14.24;56.83;100623.03;4858394;29;1373;-67
2021/01/08 03:31:01;;;;;;;;;;;;;;;14.23;57.24;100616.94;4868836;29;1277;-67
2021/01/08 03:33:27;;;;;;;;;;;;;;;14.21;57.08;100621.41;4866586;29;1353;-67
2021/01/08 03:35:54;;;;;;;;;;;;;;;14.24;57.20;100617.81;4867567;29;1911;-67
2021/01/08 03:38:21;;;;;;;;;;;;;;;14.23;57.00;100621.34;4868171;29;1302;-67
2021/01/08 03:40:47;;;;;;;;;;;;;;;14.23;57.13;100623.94;4857039;29;1310;-68
2021/01/08 03:43:13;;;;;;;;;;;;;;;14.20;57.26;100616.22;4867344;29;1334;-67
2021/01/08 03:45:40;;;;;;;;;;;;;;;14.20;56.87;100613.59;4866385;29;1237;-67
2021/01/08 03:48:06;;;;;;;;;;;;;;;14.18;57.06;100612.81;4866381;29;1313;-67
2021/01/08 03:50:32;;;;;;;;;;;;;;;14.19;56.91;100622.38;4867598;29;1226;-67
2021/01/08 03:52:59;;;;;;;;;;;;;;;14.17;56.93;100614.56;4867609;29;1302;-66
2021/01/08 03:55:25;;;;;;;;;;;;;;;14.17;57.07;100608.47;4866110;29;1911;-67
2021/01/08 03:57:51;;;;;;;;;;;;;;;14.17;56.86;100611.09;4866999;29;1372;-67
2021/01/08 04:00:18;;;;;;;;;;;;;;;14.16;56.70;100607.63;4866771;29;1289;-66
2021/01/08 04:02:44;;;;;;;;;;;;;;;14.16;56.70;100607.63;4856919;29;1289;-67
2021/01/08 04:05:11;;;;;;;;;;;;;;;14.15;57.23;100599.84;4867702;29;1213;-67
2021/01/08 04:07:37;;;;;;;;;;;;;;;14.15;57.04;100599.84;4867458;29;1282;-67
2021/01/08 04:10:04;;;;;;;;;;;;;;;14.16;56.92;100596.31;4866084;29;1237;-67
2021/01/08 04:12:30;;;;;;;;;;;;;;;14.12;56.87;100594.72;4867363;29;1297;-67
2021/01/08 04:14:56;;;;;;;;;;;;;;;14.12;56.82;100590.34;4867529;29;1930;-67
2021/01/08 04:17:22;;;;;;;;;;;;;;;14.12;56.65;100592.09;4857000;29;1368;-67
2021/01/08 04:19:49;;;;;;;;;;;;;;;14.12;57.12;100590.34;4867687;29;1238;-67
2021/01/08 04:22:15;;;;;;;;;;;;;;;14.09;57.06;100585.22;4866660;29;1280;-67
2021/01/08 04:24:41;;;;;;;;;;;;;;;14.11;56.79;100582.53;4856784;29;1331;-67
2021/01/08 04:27:08;;;;;;;;;;;;;;;14.09;56.83;100581.75;4865749;29;1380;-66
2021/01/08 04:29:34;;;;;;;;;;;;;;;14.09;57.02;100584.38;4866538;29;1238;-68
2021/01/08 04:32:00;;;;;;;;;;;;;;;14.07;56.78;100571.31;4866452;29;1333;-66
2021/01/08 04:34:27;;;;;;;;;;;;;;;14.07;56.78;100580.97;4864806;29;1152;-68
2021/01/08 04:36:54;;;;;;;;;;;;;;;14.06;57.18;100585.34;4865949;29;1982;-68
2021/01/08 04:39:20;;;;;;;;;;;;;;;14.06;57.21;100582.72;4865663;29;1230;-68
2021/01/08 04:41:46;;;;;;;;;;;;;;;14.05;56.84;100577.53;4850360;29;1532;-68
2021/01/08 04:44:12;;;;;;;;;;;;;;;14.03;57.02;100579.38;4862696;29;1430;-68
2021/01/08 04:46:41;;;;;;;;;;;;;;;14.04;57.14;100578.47;4865794;29;1304;-68
2021/01/08 04:49:08;;;;;;;;;;;;;;;14.03;56.91;100576.75;4865204;29;1136;-68
2021/01/08 04:51:35;;;;;;;;;;;;;;;14.03;56.71;100579.38;4866128;29;1234;-68
2021/01/08 04:54:02;;;;;;;;;;;;;;;14.04;56.79;100578.47;4866646;29;1333;-68
2021/01/08 04:56:31;;;;;;;;;;;;;;;14.02;56.72;100580.28;4865008;29;1916;-68
2021/01/08 04:58:57;;;;;;;;;;;;;;;14.01;56.67;100581.22;4865441;29;1419;-68
2021/01/08 05:01:23;;;;;;;;;;;;;;;14.01;56.79;100583.84;4850160;29;1329;-68
2021/01/08 05:03:52;;;;;;;;;;;;;;;14.00;56.70;100590.84;4865017;29;1333;-68
2021/01/08 05:06:18;;;;;;;;;;;;;;;14.01;56.63;100591.69;4865818;29;1257;-67
2021/01/08 05:08:49;;;;;;;;;;;;;;;13.99;56.78;100590.88;4864319;29;1282;-68
2021/01/08 05:11:24;;;;;;;;;;;;;;;13.99;56.97;100594.34;4865847;29;1258;-68
2021/01/08 05:14:00;;;;;;;;;;;;;;;13.99;57.04;100590.88;4850168;29;1358;-68
2021/01/08 05:16:27;;;;;;;;;;;;;;;13.98;56.97;100597.03;4866676;29;1915;-68
2021/01/08 05:18:55;;;;;;;;;;;;;;;13.99;57.07;100598.72;4865652;29;1305;-68
2021/01/08 05:21:24;;;;;;;;;;;;;;;13.95;56.67;100594.56;4865245;29;1350;-68
2021/01/08 05:23:52;;;;;;;;;;;;;;;13.96;57.13;100598.84;4865010;29;1320;-68
2021/01/08 05:26:19;;;;;;;;;;;;;;;13.94;56.97;100596.31;4865303;29;1249;-68
2021/01/08 05:28:49;;;;;;;;;;;;;;;13.94;56.98;100592.84;4880050;29;1388;-68
2021/01/08 05:31:16;;;;;;;;;;;;;;;13.94;56.90;100590.22;4865315;29;1277;-68
2021/01/08 05:33:42;;;;;;;;;;;;;;;13.96;56.91;100593.63;4864863;29;1339;-68
2021/01/08 05:36:10;;;;;;;;;;;;;;;13.92;56.60;100592.06;4866756;29;2023;-68
2021/01/08 05:38:39;;;;;;;;;;;;;;;13.92;56.84;100597.28;4865408;29;1293;-68
2021/01/08 05:41:07;;;;;;;;;;;;;;;13.93;56.59;100604.22;4864850;29;1311;-68
2021/01/08 05:43:42;;;;;;;;;;;;;;;13.91;56.85;100600.81;4865397;29;1388;-68
2021/01/08 05:46:14;;;;;;;;;;;;;;;13.91;56.57;100609.53;4864843;29;1176;-68
2021/01/08 05:48:42;;;;;;;;;;;;;;;13.90;56.97;100604.31;4864902;29;1364;-67
2021/01/08 05:51:32;;;;;;;;;;;;;;;13.89;56.93;100613.13;4867437;29;1222;-67
2021/01/08 05:54:03;;;;;;;;;;;;;;;13.87;56.92;100615.78;4851921;29;1538;-67
2021/01/08 05:56:36;;;;;;;;;;;;;;;13.88;56.90;100620.13;4867256;29;2004;-67
2021/01/08 05:59:11;;;;;;;;;;;;;;;13.88;56.57;100617.50;4865930;29;1272;-67
2021/01/08 06:01:39;;;;;;;;;;;;;;;13.87;56.76;100621.03;4865773;29;1238;-67
2021/01/08 06:04:07;;;;;;;;;;;;;;;13.88;56.67;100619.25;4864411;29;1246;-67
2021/01/08 06:06:40;;;;;;;;;;;;;;;13.87;56.70;100615.78;4865758;29;1305;-67
2021/01/08 06:09:10;;;;;;;;;;;;;;;13.86;56.86;100610.63;4866006;29;1258;-67
2021/01/08 06:11:39;;;;;;;;;;;;;;;13.86;56.96;100605.38;4849514;29;1404;-67
2021/01/08 06:14:06;;;;;;;;;;;;;;;13.87;56.51;100607.06;4866320;29;1317;-68
2021/01/08 06:16:36;;;;;;;;;;;;;;;13.85;56.63;100612.38;4864316;29;1981;-67
2021/01/08 06:19:04;;;;;;;;;;;;;;;13.85;56.57;100611.53;4864559;29;1587;-67
2021/01/08 06:21:36;;;;;;;;;;;;;;;13.85;56.69;100622.00;4870305;29;1242;-67
2021/01/08 06:24:02;;;;;;;;;;;;;;;13.82;56.60;100622.97;4870077;29;1304;-67
2021/01/08 06:26:32;;;;;;;;;;;;;;;13.83;56.55;100622.03;4871586;29;1217;-67
2021/01/08 06:29:02;;;;;;;;;;;;;;;13.82;56.85;100627.34;4868749;29;1317;-66
2021/01/08 06:31:39;;;;;;;;;;;;;;;13.82;56.30;100624.72;4869647;29;1269;-67
2021/01/08 06:34:06;;;;;;;;;;;;;;;13.81;56.96;100623.88;4869719;29;1282;-68
2021/01/08 06:36:33;;;;;;;;;;;;;;;13.81;56.81;100631.72;4867906;29;1927;-67
2021/01/08 06:39:01;;;;;;;;;;;;;;;13.79;56.85;100628.31;4868497;29;1334;-66
2021/01/08 06:41:27;;;;;;;;;;;;;;;13.81;56.55;100638.72;4867418;29;1285;-66
2021/01/08 06:44:05;;;;;;;;;;;;;;;13.81;56.58;100634.34;4869302;29;1296;-68
2021/01/08 06:46:33;;;;;;;;;;;;;;;13.79;56.80;100632.69;4867599;29;1235;-67
2021/01/08 06:49:07;;;;;;;;;;;;;;;13.75;56.98;100631.97;4868646;29;1348;-67
2021/01/08 06:51:34;;;;;;;;;;;;;;;13.76;56.86;100638.91;4867812;29;1363;-67
2021/01/08 06:54:01;;;;;;;;;;;;;;;13.76;56.91;100638.06;4868489;29;1245;-67
2021/01/08 06:56:29;;;;;;;;;;;;;;;13.69;56.83;100625.19;4867389;29;2013;-67
2021/01/08 06:58:55;;;;;;;;;;;;;;;13.75;56.78;100641.56;4851697;29;1266;-67
2021/01/08 07:01:32;;;;;;;;;;;;;;;13.75;56.58;100644.19;4868737;29;1294;-67
2021/01/08 07:04:05;;;;;;;;;;;;;;;13.73;56.85;100646.03;4867666;29;1258;-67
2021/01/08 07:06:35;;;;;;;;;;;;;;;13.73;56.97;100659.97;4867666;29;1257;-67
2021/01/08 07:09:03;;;;;;;;;;;;;;;13.73;56.90;100665.22;4851273;29;1266;-67
2021/01/08 07:11:29;;;;;;;;;;;;;;;13.72;56.62;100675.72;4866679;29;1102;-68
2021/01/08 07:14:14;;;;;;;;;;;;;;;13.70;56.71;100681.03;4868325;29;1254;-66
2021/01/08 07:16:42;;;;;;;;;;;;;;;13.71;57.03;100685.34;4843382;29;2004;-66
2021/01/08 07:19:09;;;;;;;;;;;;;;;13.72;57.00;100683.56;4866818;29;1594;-68
2021/01/08 07:21:41;;;;;;;;;;;;;;;13.71;57.20;100682.72;4868249;29;1325;-67
2021/01/08 07:24:12;;;;;;;;;;;;;;;13.71;57.02;100687.94;4868675;29;1317;-67
2021/01/08 07:26:39;;;;;;;;;;;;;;;13.67;56.73;100679.38;4865599;29;1325;-67
2021/01/08 07:29:06;;;;;;;;;;;;;;;13.81;56.77;100680.63;4866731;29;1337;-67
2021/01/08 07:31:33;;;;;;;;;;;;;;;13.78;57.02;100683.34;4863105;29;1380;-67
2021/01/08 07:34:00;;;;;;;;;;;;;;;13.84;57.41;100683.13;4866368;29;1254;-68
2021/01/08 07:36:27;;;;;;;;;;;;;;;13.86;57.05;100678.69;4869120;29;1982;-67
2021/01/08 07:38:54;;;;;;;;;;;;;;;13.87;57.33;100678.63;4852330;29;1330;-66
2021/01/08 07:41:29;;;;;;;;;;;;;;;13.94;57.54;100685.34;4866625;29;1293;-67
2021/01/08 07:43:55;;;;;;;;;;;;;;;14.02;57.59;100674.56;4866252;29;1321;-67
2021/01/08 07:46:28;;;;;;;;;;;;;;;14.14;57.68;100669.72;4867437;29;1281;-67
2021/01/08 07:48:55;;;;;;;;;;;;;;;14.26;56.98;100675.41;4866235;29;1328;-67
2021/01/08 07:51:22;;;;;;;;;;;;;;;14.35;56.92;100673.28;4866669;29;1246;-67
2021/01/08 07:53:50;;;;;;;;;;;;;;;14.49;56.65;100667.50;4869708;29;1283;-67
2021/01/08 07:56:16;;;;;;;;;;;;;;;14.65;56.82;100669.41;4868779;29;1907;-67
2021/01/08 07:58:47;;;;;;;;;;;;;;;14.82;56.24;100675.75;4850527;29;1730;-65
2021/01/08 08:01:17;;;;;;;;;;;;;;;14.98;56.33;100687.31;4870024;29;1301;-66
2021/01/08 08:03:44;;;;;;;;;;;;;;;15.12;56.00;100684.94;4870929;29;1337;-65
2021/01/08 08:06:10;;;;;;;;;;;;;;;15.19;55.88;100681.16;4868841;29;1269;-66
2021/01/08 08:08:42;;;;;;;;;;;;;;;15.28;55.80;100693.88;4873318;29;1567;-66
2021/01/08 08:11:16;;;;;;;;;;;;;;;15.36;55.59;100693.53;4868718;29;1274;-64
2021/01/08 08:13:43;;;;;;;;;;;;;;;15.43;55.65;100698.47;4867681;29;1309;-66
2021/01/08 08:16:10;;;;;;;;;;;;;;;15.46;55.51;100703.56;4848562;29;1927;-66
2021/01/08 08:18:49;;;;;;;;;;;;;;;15.51;55.72;100701.63;4864756;29;1535;-65
2021/01/08 08:21:31;;;;;;;;;;;;;;;15.55;55.57;100703.19;4864628;29;1210;-67
2021/01/08 08:23:58;;;;;;;;;;;;;;;15.62;55.50;100706.41;4848339;29;1456;-67
2021/01/08 08:26:25;;;;;;;;;;;;;;;15.59;55.25;100717.06;4868163;29;1246;-65
2021/01/08 08:28:58;;;;;;;;;;;;;;;15.74;55.11;100725.09;4869111;29;1250;-68
2021/01/08 08:31:28;;;;;;;;;;;;;;;15.70;55.37;100720.91;4867433;29;1215;-66
2021/01/08 08:33:55;;;;;;;;;;;;;;;15.69;55.26;100720.94;4865868;29;1312;-68
2021/01/08 08:36:22;;;;;;;;;;;;;;;15.67;55.45;100728.91;4865917;29;1916;-67
2021/01/08 08:39:09;;;;;;;;;;;;;;;15.68;55.60;100733.25;4847180;29;1436;-66
2021/01/08 08:41:39;;;;;;;;;;;;;;;15.71;55.41;100733.13;4851083;29;1255;-67
2021/01/08 08:44:07;;;;;;;;;;;;;;;15.72;55.48;100739.19;4864422;29;1226;-67
2021/01/08 08:46:45;;;;;;;;;;;;;;;15.70;55.33;100741.06;4848753;29;1302;-66
2021/01/08 08:49:13;;;;;;;;;;;;;;;15.71;55.23;100743.63;4852324;29;1238;-68
2021/01/08 08:51:40;;;;;;;;;;;;;;;15.74;55.27;100746.13;4865947;29;1269;-67
2021/01/08 08:54:06;;;;;;;;;;;;;;;15.72;55.19;100750.56;4869225;29;1325;-68
2021/01/08 08:56:32;;;;;;;;;;;;;;;15.76;55.63;100759.16;4869408;29;1984;-67
2021/01/08 08:58:59;;;;;;;;;;;;;;;15.77;55.50;100766.13;4866462;29;1335;-66
2021/01/08 09:01:37;;;;;;;;;;;;;;;15.79;55.53;100767.75;4867850;29;1285;-68
2021/01/08 09:04:03;;;;;;;;;;;;;;;15.78;55.26;100760.78;4863597;29;1313;-67
2021/01/08 09:06:34;;;;;;;;;;;;;;;15.78;55.51;100763.41;4863474;29;1233;-68
2021/01/08 09:09:05;;;;;;;;;;;;;;;15.78;55.47;100760.78;4865001;29;1266;-68
2021/01/08 09:11:44;;;;;;;;;;;;;;;15.82;55.25;100772.03;4864272;29;1274;-68
2021/01/08 09:14:13;;;;;;;;;;;;;;;15.84;55.12;100762.28;4865961;29;1286;-67
2021/01/08 09:17:06;;;;;;;;;;;;;;;15.84;55.21;100767.53;4864360;29;1982;-68
2021/01/08 09:19:45;;;;;;;;;;;;;;;15.88;55.00;100765.63;4863820;29;1703;-67
2021/01/08 09:22:13;;;;;;;;;;;;;;;15.92;54.81;100767.22;4871840;29;1317;-69
2021/01/08 09:24:42;;;;;;;;;;;;;;;15.93;54.76;100764.50;4868184;29;1237;-66
2021/01/08 09:27:10;;;;;;;;;;;;;;;15.94;54.64;100765.38;4869075;29;1415;-67
2021/01/08 09:29:37;;;;;;;;;;;;;;;15.96;54.75;100768.78;4847409;29;1327;-68
2021/01/08 09:32:10;;;;;;;;;;;;;;;16.01;54.77;100772.06;4863722;29;1426;-67
2021/01/08 09:34:37;;;;;;;;;;;;;;;16.03;54.72;100770.22;4865356;29;1103;-68
2021/01/08 09:37:16;;;;;;;;;;;;;;;16.04;54.73;100761.41;4864925;29;1970;-67
2021/01/08 09:39:43;;;;;;;;;;;;;;;16.08;54.65;100770.88;4864850;29;1231;-66
2021/01/08 09:42:13;;;;;;;;;;;;;;;16.10;54.63;100769.00;4849977;29;1377;-66
2021/01/08 09:44:40;;;;;;;;;;;;;;;16.10;54.66;100766.38;4865304;29;1274;-69
2021/01/08 09:47:12;;;;;;;;;;;;;;;16.10;54.68;100756.72;4866271;29;1289;-68
2021/01/08 09:49:42;;;;;;;;;;;;;;;16.13;54.54;100758.38;4849894;29;1234;-68
2021/01/08 09:52:09;;;;;;;;;;;;;;;16.19;54.12;100772.09;4864290;29;1297;-69
2021/01/08 09:54:45;;;;;;;;;;;;;;;16.21;54.35;100769.38;4833277;29;1274;-68
2021/01/08 09:57:28;;;;;;;;;;;;;;;16.17;54.24;100773.91;4865799;29;1903;-67
2021/01/08 09:59:55;;;;;;;;;;;;;;;16.16;54.60;100771.38;4870790;29;1230;-68
2021/01/08 10:02:35;;;;;;;;;;;;;;;16.19;54.66;100765.97;4869058;29;1322;-69
2021/01/08 10:05:36;;;;;;;;;;;;;;;16.18;54.40;100766.88;4865658;29;1269;-68
2021/01/08 10:08:29;;;;;;;;;;;;;;;16.17;54.76;100773.91;4869042;29;1371;-71
2021/01/08 10:10:55;;;;;;;;;;;;;;;16.19;54.83;100782.59;4861379;29;1327;-68
2021/01/08 10:13:22;;;;;;;;;;;;;;;16.20;54.84;100776.41;4867828;29;1282;-68
2021/01/08 10:15:50;;;;;;;;;;;;;;;16.19;54.73;100771.22;4867667;29;1914;-67
2021/01/08 10:18:21;;;;;;;;;;;;;;;16.20;54.79;100773.75;4868011;29;1488;-69
2021/01/08 10:20:48;;;;;;;;;;;;;;;16.21;54.78;100783.38;4867600;29;1300;-68
2021/01/08 10:23:18;;;;;;;;;;;;;;;16.21;54.90;100785.13;4867619;29;1313;-68
2021/01/08 10:25:44;;;;;;;;;;;;;;;16.20;54.73;100778.19;4852015;29;1274;-66
2021/01/08 10:28:21;;;;;;;;;;;;;;;16.20;54.91;100768.50;4872959;29;1344;-66
2021/01/08 10:30:48;;;;;;;;;;;;;;;16.22;54.81;100768.47;4852043;29;1270;-65
2021/01/08 10:33:25;;;;;;;;;;;;;;;16.21;54.74;100772.00;4866970;29;1389;-65
2021/01/08 10:35:52;;;;;;;;;;;;;;;16.20;54.75;100765.06;4852285;29;1907;-66
2021/01/08 10:38:19;;;;;;;;;;;;;;;16.19;54.81;100758.94;4866552;29;1364;-68
2021/01/08 10:40:45;;;;;;;;;;;;;;;16.21;54.99;100766.75;4868199;29;1214;-69
2021/01/08 10:43:13;;;;;;;;;;;;;;;16.22;54.87;100765.81;4869019;29;1270;-68
2021/01/08 10:45:42;;;;;;;;;;;;;;;16.21;55.07;100774.63;4857701;29;1194;-68
2021/01/08 10:48:09;;;;;;;;;;;;;;;16.16;54.80;100763.47;4868184;29;1294;-68
2021/01/08 10:50:35;;;;;;;;;;;;;;;16.21;54.89;100761.47;4868866;29;1234;-67
2021/01/08 10:53:02;;;;;;;;;;;;;;;16.23;54.95;100751.78;4867704;29;1380;-67
2021/01/08 10:55:28;;;;;;;;;;;;;;;16.23;54.94;100751.78;4852483;29;1226;-67
2021/01/08 10:57:57;;;;;;;;;;;;;;;16.23;54.83;100746.50;4866727;29;1990;-67
2021/01/08 11:00:24;;;;;;;;;;;;;;;16.23;54.91;100736.00;4859004;29;1840;-68
2021/01/08 11:02:53;;;;;;;;;;;;;;;16.25;54.78;100729.75;4851782;29;1345;-66
2021/01/08 11:05:20;;;;;;;;;;;;;;;16.24;54.85;100729.81;4866429;29;1495;-68
2021/01/08 11:07:48;;;;;;;;;;;;;;;16.24;54.86;100722.78;4867256;29;1309;-67
2021/01/08 11:10:15;;;;;;;;;;;;;;;16.24;54.80;100725.41;4868597;29;1230;-68
2021/01/08 11:12:42;;;;;;;;;;;;;;;16.25;54.86;100724.50;4867073;29;1315;-68
2021/01/08 11:15:09;;;;;;;;;;;;;;;16.40;53.19;100722.91;4866583;29;1321;-68
2021/01/08 11:17:35;;;;;;;;;;;;;;;16.32;53.80;100714.53;4868513;29;1918;-67
2021/01/08 11:20:03;;;;;;;;;;;;;;;16.28;54.53;100711.19;4858436;29;1274;-68
2021/01/08 11:22:29;;;;;;;;;;;;;;;16.29;54.72;100704.16;4866248;29;1297;-68
2021/01/08 11:24:55;;;;;;;;;;;;;;;16.27;54.73;100695.50;4873572;29;1418;-69
2021/01/08 11:27:22;;;;;;;;;;;;;;;16.25;54.80;100679.81;4865494;29;1372;-69
2021/01/08 11:29:48;;;;;;;;;;;;;;;16.26;54.79;100681.50;4865831;29;1301;-68
2021/01/08 11:32:14;;;;;;;;;;;;;;;16.27;54.87;100674.47;4866283;29;1388;-69
2021/01/08 11:34:41;;;;;;;;;;;;;;;16.30;54.44;100664.66;4855640;29;1135;-67
2021/01/08 11:37:10;;;;;;;;;;;;;;;16.31;54.73;100655.00;4867800;29;1907;-67
2021/01/08 11:39:44;;;;;;;;;;;;;;;16.35;54.49;100646.88;4866614;29;1175;-66
2021/01/08 11:42:31;;;;;;;;;;;;;;;16.36;56.18;100631.97;4866256;29;1324;-65
2021/01/08 11:44:58;;;;;;;;;;;;;;;16.39;55.89;100631.81;4849312;29;1300;-67
2021/01/08 11:47:24;;;;;;;;;;;;;;;16.42;55.91;100631.66;4870263;29;1310;-67
2021/01/08 11:49:50;;;;;;;;;;;;;;;16.43;55.95;100628.13;4867176;29;1290;-67
2021/01/08 11:52:17;;;;;;;;;;;;;;;16.57;55.65;100620.41;4867038;29;1302;-67
2021/01/08 11:54:43;;;;;;;;;;;;;;;16.58;55.73;100614.25;4865956;29;1274;-66
2021/01/08 11:57:09;;;;;;;;;;;;;;;16.54;55.67;100610.06;4852432;29;1911;-67
2021/01/08 11:59:35;;;;;;;;;;;;;;;16.52;56.01;100617.16;4866002;29;1206;-67
2021/01/08 12:02:05;;;;;;;;;;;;;;;16.53;56.07;100602.22;4866823;29;1510;-67
2021/01/08 12:04:32;;;;;;;;;;;;;;;16.58;55.98;100606.34;4849377;29;1204;-68
2021/01/08 12:07:00;;;;;;;;;;;;;;;16.58;55.94;100603.72;4867580;29;1310;-68
2021/01/08 12:09:27;;;;;;;;;;;;;;;16.57;56.00;100609.91;4870779;29;1267;-67
2021/01/08 12:11:57;;;;;;;;;;;;;;;16.59;56.07;100613.31;4867329;29;1324;-68
2021/01/08 12:14:23;;;;;;;;;;;;;;;16.64;56.40;100608.69;4865220;29;1293;-66
2021/01/08 12:16:50;;;;;;;;;;;;;;;16.64;56.25;100598.16;4866513;29;1990;-69
2021/01/08 12:19:17;;;;;;;;;;;;;;;16.63;56.24;100593.81;4865913;29;1253;-69
2021/01/08 12:21:47;;;;;;;;;;;;;;;16.64;56.18;100592.03;4869471;29;1358;-66
2021/01/08 12:24:13;;;;;;;;;;;;;;;16.72;56.20;100597.75;4866706;29;1238;-70
2021/01/08 12:26:40;;;;;;;;;;;;;;;16.67;56.27;100594.50;4871410;29;1246;-70
2021/01/08 12:29:08;;;;;;;;;;;;;;;16.66;56.29;100590.16;4866002;29;1346;-68
2021/01/08 12:31:35;;;;;;;;;;;;;;;16.67;56.51;100579.59;4873273;29;1242;-65
2021/01/08 12:34:02;;;;;;;;;;;;;;;16.66;56.55;100577.88;4865455;29;1321;-68
2021/01/08 12:36:28;;;;;;;;;;;;;;;16.68;56.73;100578.66;4866134;29;1911;-70
2021/01/08 12:38:54;;;;;;;;;;;;;;;16.69;56.51;100566.34;4872037;29;1356;-68
2021/01/08 12:41:21;;;;;;;;;;;;;;;16.70;56.60;100576.81;4867720;29;1257;-68
2021/01/08 12:43:47;;;;;;;;;;;;;;;16.73;56.95;100573.16;4866534;29;1360;-67
2021/01/08 12:46:13;;;;;;;;;;;;;;;16.74;56.67;100559.94;4855387;29;1313;-68
2021/01/08 12:48:46;;;;;;;;;;;;;;;16.72;56.81;100561.78;4866447;29;1286;-69
2021/01/08 12:51:15;;;;;;;;;;;;;;;16.71;57.04;100562.72;4867340;29;1147;-68
2021/01/08 12:53:43;;;;;;;;;;;;;;;16.74;56.90;100557.31;4866876;29;1277;-68
2021/01/08 12:56:13;;;;;;;;;;;;;;;16.74;57.28;100556.47;4867724;29;1911;-68